LFLYLFBL

Guest
Details From LFLY - Lyon Bron
To LFBL - Limoges Bellegarde
Flight Number -
Tags generated
Created
Modified
Stats Distance 158 nm / 292 km
Max Altitude 0 ft / 0 m
Waypoints 3
Social Downloads 0
Likes 0
Share VATSIM

Download

Looking for another format? Having issues loading an existing format? Contact us
Advertisement - Login to hide

Notes

None

Route

LFLY CFA LFBL

ID Type Via Altitude Latitude Longitude Leg Dist Tot Dist Heading (true) Name
O LFLY APT - 0 ft / 0 m 45.72717˚ 4.94427˚ - 0 nm - Lyon Bron
CFA VOR - 0 ft / 0 m 45.78747˚ 3.19219˚ 73 nm 73 nm 273° / 272° CLERMONT FERRAND AUVERGNE VOR-
O LFBL APT - 0 ft / 0 m 45.86190˚ 1.18137˚ 84 nm 157 nm 274° / 272° Limoges Bellegarde

Altitude Profile

Advertisement - Login to hide

LFLY

Details ICAO LFLY (LYN)
Name Lyon Bron
Region France
Timezone Europe/Paris (UTC+1.0)
Stats Elevation 659 ft / 201 m (AMSL)
Location 45.727171° 4.944274°
Runways 1
Magnetic Variation 1.451° E

METAR

LFLY 151230Z AUTO 17007KT 9999 FEW045 OVC056 09/01 Q1003 NOSIG

Decode

TAF

TAF LFLY 151100Z 1512/1612 18006KT 9999 BKN035 TEMPO 1516/1524 4000 SHRA BKN025TCU BECMG 1521/1523 32008KT TEMPO 1600/1606 2000 -SNRA BKN010 PROB30 TEMPO 1602/1609 1200 SN BKN005

Decode

Departure Runways

ID Width Length Bearing (true) Bearing (mag) Surface Threshold Offset Overrun Length
16 148 ft / 45 m 5,972 ft / 1,820 m 163.44° 161.99° Asphalt 984 ft / 300 m 0 ft / 0 m
34 148 ft / 45 m 5,972 ft / 1,820 m 343.44° 341.99° Asphalt 984 ft / 300 m 0 ft / 0 m

LFBL

Details ICAO LFBL (LIG)
Name Limoges Bellegarde
Region France
Timezone Europe/Paris (UTC+1.0)
Stats Elevation 1,300 ft / 396 m (AMSL)
Location 45.861896° 1.181368°
Runways 1
Magnetic Variation 0.423° E

METAR

LFBL 151230Z AUTO 22006KT 9999 OVC011/// ///TCU 05/04 Q1003 TEMPO 4000 SHRA BKN008 SCT020TCU BECMG 31012KT

Decode

TAF

TAF TAF LFBL 151100Z 1512/1612 21009KT 9999 BKN020 TEMPO 1512/1518 4000 SHRA BKN008 SCT020TCU BECMG 1514/1516 31012KT TEMPO 1515/1519 31017G28KT BECMG 1521/1523 BKN005 PROB30 TEMPO 1602/1609 4000 BR BKN003

Decode

Destination Runways

ID Width Length Bearing (true) Bearing (mag) Surface Threshold Offset Overrun Length
03 148 ft / 45 m 8,202 ft / 2,500 m 33.16° 32.74° Asphalt 0 ft / 0 m 0 ft / 0 m
21 148 ft / 45 m 8,202 ft / 2,500 m 213.18° 212.76° Asphalt 196 ft / 60 m 0 ft / 0 m

Approach Navaids

Runway Type Ident Frequency Range Bearing (true) Bearing (mag) Slope Elevation
03 Localiser LG 109.29 MHz 18 nm / 33 km 33.10° 32.67° - 1,299 ft / 396 m (AMSL)
03 Glidescope LG 109.29 MHz 10 nm / 19 km 33.17° 32.75° 3.00° 1,299 ft / 396 m (AMSL)
21 Localiser LG 110.10 MHz 18 nm / 33 km 213.16° 212.74° - 1,271 ft / 387 m (AMSL)
21 Glidescope LG 110.10 MHz 10 nm / 19 km 213.17° 212.75° 3.00° 1,271 ft / 387 m (AMSL)
21 DME LG 110.10 MHz 18 nm / 33 km - - - 1,340 ft / 408 m (AMSL)